Time;durP1;ratioP1;P1;durP2;ratioP2;P2;SDS_P1;SDS_P2;PMS_P1;PMS_P2;Temp;Humidity;BMP_temperature;BMP_pressure;BME280_temperature;BME280_humidity;BME280_pressure;Samples;Min_cycle;Max_cycle;Signal;HPM_P1;HPM_P2
2022/09/15 00:00:06;;;;;;;9.35;2.90;;;;;;;19.51;56.54;99940.19;5030159;28;100512;-66
2022/09/15 00:02:36;;;;;;;12.75;2.95;;;;;;;19.68;55.83;99944.97;5025456;27;99080;-65
2022/09/15 00:05:03;;;;;;;7.63;2.22;;;;;;;19.55;56.37;99940.81;5034418;28;96725;-65
2022/09/15 00:07:30;;;;;;;8.90;2.08;;;;;;;19.61;56.38;99942.94;5030797;27;96827;-66
2022/09/15 00:09:58;;;;;;;7.45;2.50;;;;;;;19.50;56.52;99942.03;5033368;27;99151;-65
2022/09/15 00:12:25;;;;;;;12.88;2.78;;;;;;;19.48;56.88;99935.13;5030621;27;98846;-65
2022/09/15 00:14:52;;;;;;;14.55;2.90;;;;;;;19.41;56.74;99939.25;5029998;27;96915;-65
2022/09/15 00:17:19;;;;;;;9.63;2.70;;;;;;;19.62;56.21;99939.28;5032212;28;97382;-65
2022/09/15 00:19:45;;;;;;;6.95;2.30;;;;;;;19.73;55.90;99939.22;5032613;27;99180;-65
2022/09/15 00:22:12;;;;;;;9.50;2.40;;;;;;;19.63;56.02;99927.56;5034379;28;98166;-65
2022/09/15 00:24:38;;;;;;;10.57;2.67;;;;;;;19.19;57.47;99926.81;5033534;27;98883;-65
2022/09/15 00:27:06;;;;;;;8.93;2.13;;;;;;;19.49;56.65;99929.59;5031758;27;96873;-65
2022/09/15 00:29:32;;;;;;;7.80;2.30;;;;;;;19.27;57.24;99921.66;5029750;28;99255;-65
2022/09/15 00:31:59;;;;;;;10.38;2.83;;;;;;;19.12;57.73;99922.94;5029160;28;99787;-65
2022/09/15 00:34:25;;;;;;;6.90;2.35;;;;;;;19.20;57.66;99925.00;5031154;28;97479;-65
2022/09/15 00:36:52;;;;;;;15.02;2.55;;;;;;;19.11;58.13;99921.25;5032059;28;96890;-65
2022/09/15 00:39:21;;;;;;;9.05;2.40;;;;;;;19.20;57.76;99925.84;5033402;27;99240;-66
2022/09/15 00:41:48;;;;;;;6.50;2.28;;;;;;;19.11;57.98;99927.44;5032602;28;99278;-65
2022/09/15 00:44:51;;;;;;;6.43;2.00;;;;;;;19.16;58.08;99931.59;5030160;28;96726;-65
2022/09/15 00:47:22;;;;;;;7.63;3.00;;;;;;;18.91;58.78;99932.75;5032872;27;98487;-66
2022/09/15 00:49:53;;;;;;;9.18;2.20;;;;;;;18.96;58.75;99925.22;5033000;27;99334;-66
2022/09/15 00:52:25;;;;;;;9.88;2.60;;;;;;;19.04;58.48;99933.44;5029395;28;98904;-66
2022/09/15 00:55:02;;;;;;;9.43;2.92;;;;;;;18.93;59.10;99936.16;5031305;27;96924;-66
2022/09/15 00:57:33;;;;;;;7.88;2.45;;;;;;;18.79;59.57;99936.44;5029444;27;97074;-67
2022/09/15 01:00:05;;;;;;;13.95;3.40;;;;;;;18.87;59.15;99932.19;5032047;28;100899;-65
2022/09/15 01:02:36;;;;;;;10.57;2.70;;;;;;;18.73;59.63;99937.81;5027162;28;98855;-65
2022/09/15 01:05:06;;;;;;;10.85;3.50;;;;;;;18.73;59.68;99931.59;5032319;27;97053;-65
2022/09/15 01:07:37;;;;;;;7.70;2.40;;;;;;;18.57;60.13;99930.19;5033644;27;96811;-65
2022/09/15 01:10:08;;;;;;;10.38;2.28;;;;;;;18.63;59.91;99931.53;5029132;28;100129;-66
2022/09/15 01:12:35;;;;;;;12.05;2.55;;;;;;;18.62;59.86;99929.81;5030832;28;97607;-64
2022/09/15 01:15:03;;;;;;;12.88;2.78;;;;;;;18.65;60.05;99924.19;5030733;27;97161;-64
2022/09/15 01:17:42;;;;;;;9.27;2.50;;;;;;;18.69;59.87;99931.03;5032783;28;96927;-64
2022/09/15 01:20:52;;;;;;;12.63;2.60;;;;;;;18.70;59.75;99928.22;5031941;28;98932;-64
2022/09/15 01:23:36;;;;;;;14.02;2.88;;;;;;;18.61;60.12;99931.63;5027344;28;99061;-63
2022/09/15 01:26:41;;;;;;;13.27;2.47;;;;;;;18.56;60.29;99936.53;5032379;28;97616;-64
2022/09/15 01:29:52;;;;;;;12.23;2.97;;;;;;;18.54;60.04;99940.25;5027438;27;97315;-64
2022/09/15 01:35:22;;;;;;;9.45;2.47;;;;;;;18.45;60.37;99949.00;5024085;28;97540;-64
2022/09/15 01:37:57;;;;;;;9.65;3.03;;;;;;;18.71;59.58;99945.94;5027835;28;98915;-64
2022/09/15 01:40:32;;;;;;;12.45;3.10;;;;;;;18.61;59.90;99939.66;5031644;27;96815;-64
2022/09/15 01:43:02;;;;;;;10.38;2.60;;;;;;;18.49;60.10;99940.63;5029583;27;98858;-65
2022/09/15 01:45:31;;;;;;;6.97;2.42;;;;;;;18.67;59.62;99944.50;5030065;28;99907;-65
2022/09/15 01:48:01;;;;;;;14.68;3.03;;;;;;;18.50;60.08;99939.66;5028826;28;97052;-65
2022/09/15 01:50:32;;;;;;;8.52;2.38;;;;;;;18.32;60.44;99946.47;5028887;28;98893;-65
2022/09/15 01:53:03;;;;;;;10.48;2.95;;;;;;;18.41;60.43;99936.88;5030386;28;99017;-64
2022/09/15 01:55:35;;;;;;;8.18;2.95;;;;;;;18.46;60.22;99950.72;5030862;27;98847;-66
2022/09/15 01:58:02;;;;;;;9.43;2.72;;;;;;;18.39;60.48;99945.00;5031673;28;96845;-66
2022/09/15 02:00:29;;;;;;;13.25;2.80;;;;;;;18.63;59.64;99943.06;5028678;27;96854;-65
2022/09/15 02:03:03;;;;;;;11.07;2.88;;;;;;;18.41;60.17;99943.06;5028193;28;98936;-66
2022/09/15 02:05:38;;;;;;;8.73;2.55;;;;;;;18.57;59.87;99951.59;5029853;28;99465;-66
2022/09/15 02:08:13;;;;;;;8.18;2.08;;;;;;;18.44;60.26;99950.88;5031835;28;96861;-65
2022/09/15 02:10:49;;;;;;;9.77;3.03;;;;;;;18.16;61.21;99943.34;5030299;27;97610;-66
2022/09/15 02:13:22;;;;;;;7.38;2.40;;;;;;;18.68;59.54;99940.88;5025263;28;99585;-65
2022/09/15 02:15:53;;;;;;;11.80;2.97;;;;;;;18.65;59.47;99934.91;5031088;28;99125;-65
2022/09/15 02:18:31;;;;;;;10.07;2.63;;;;;;;18.73;59.19;99942.31;5032152;28;96763;-65
2022/09/15 02:21:06;;;;;;;11.93;3.20;;;;;;;18.53;59.78;99942.06;5029880;28;98901;-65
2022/09/15 02:23:40;;;;;;;11.18;2.40;;;;;;;18.67;59.20;99943.66;5027931;28;99384;-65
2022/09/15 02:26:12;;;;;;;10.73;2.58;;;;;;;18.53;59.48;99941.22;5028716;27;98971;-65
2022/09/15 02:28:42;;;;;;;7.03;2.85;;;;;;;18.41;59.82;99931.50;5032056;27;96746;-67
2022/09/15 02:31:12;;;;;;;13.65;2.70;;;;;;;18.36;60.13;99942.59;5030568;28;96786;-66
2022/09/15 02:33:44;;;;;;;12.27;2.85;;;;;;;18.44;59.73;99950.88;5028932;27;98985;-65
2022/09/15 02:36:13;;;;;;;8.90;2.90;;;;;;;18.39;60.01;99939.66;5029480;28;98791;-65
2022/09/15 02:38:48;;;;;;;9.20;3.05;;;;;;;18.24;60.49;99940.91;5029831;27;96850;-65
2022/09/15 02:41:16;;;;;;;12.05;3.30;;;;;;;18.35;60.29;99940.03;5028194;28;96757;-65
2022/09/15 02:43:50;;;;;;;7.00;2.75;;;;;;;18.15;61.14;99936.28;5030231;27;99099;-65
2022/09/15 02:46:18;;;;;;;11.98;2.72;;;;;;;18.02;61.38;99948.91;5028524;28;98990;-65
2022/09/15 02:48:46;;;;;;;8.65;2.80;;;;;;;18.08;61.33;99945.75;5029022;28;96721;-66
2022/09/15 02:51:17;;;;;;;9.70;3.00;;;;;;;18.11;nan;99945.53;5028382;28;96883;-65
2022/09/15 02:53:45;;;;;;;11.77;3.55;;;;;;;18.11;61.05;99942.84;5025769;28;97809;-66
2022/09/15 02:56:11;;;;;;;11.95;2.90;;;;;;;18.07;60.99;99944.91;5029924;28;98796;-65
2022/09/15 02:58:38;;;;;;;7.45;3.20;;;;;;;18.11;61.14;99951.72;5026716;28;97279;-69
2022/09/15 03:01:06;;;;;;;9.05;2.95;;;;;;;18.11;60.96;99950.88;5029175;27;97073;-65
2022/09/15 03:03:34;;;;;;;10.15;3.03;;;;;;;18.10;60.95;99949.16;5027583;28;98790;-65
2022/09/15 03:06:16;;;;;;;8.18;3.38;;;;;;;18.12;60.88;99944.53;5026643;27;99424;-65
2022/09/15 03:08:43;;;;;;;13.13;3.25;;;;;;;18.04;60.94;99945.16;5031171;28;96875;-66
2022/09/15 03:11:11;;;;;;;11.90;3.50;;;;;;;18.13;60.61;99944.41;5030536;27;96893;-65
2022/09/15 03:13:37;;;;;;;12.43;3.47;;;;;;;17.95;61.01;99945.03;5030523;28;98869;-65
2022/09/15 03:16:07;;;;;;;12.30;2.90;;;;;;;18.06;60.85;99942.34;5029686;27;98943;-65
2022/09/15 03:18:34;;;;;;;9.13;2.92;;;;;;;17.92;61.12;99941.59;5028037;28;97052;-66
2022/09/15 03:21:02;;;;;;;14.20;3.65;;;;;;;17.91;61.50;99944.44;5030464;28;96864;-66
2022/09/15 03:23:31;;;;;;;8.52;3.08;;;;;;;17.97;61.00;99932.41;5030327;28;98807;-65
2022/09/15 03:26:04;;;;;;;10.18;2.95;;;;;;;17.79;61.69;99940.00;5028972;28;99407;-65
2022/09/15 03:28:30;;;;;;;8.13;3.10;;;;;;;18.04;60.84;99938.97;5025073;27;96868;-65
2022/09/15 03:31:00;;;;;;;12.32;3.15;;;;;;;17.94;61.33;99944.16;5028492;27;97091;-65
2022/09/15 03:33:26;;;;;;;8.00;3.00;;;;;;;18.19;60.26;99948.41;5025965;27;99465;-66
2022/09/15 03:35:53;;;;;;;11.75;3.20;;;;;;;18.00;60.89;99942.81;5025808;27;98418;-65
2022/09/15 03:38:22;;;;;;;11.02;3.30;;;;;;;17.96;61.03;99942.22;5033319;27;96986;-65
2022/09/15 03:41:00;;;;;;;12.07;3.20;;;;;;;18.01;60.73;99944.53;5032923;27;97023;-65
2022/09/15 03:43:30;;;;;;;10.25;2.90;;;;;;;17.79;61.35;99950.69;5031600;27;98873;-65
2022/09/15 03:45:57;;;;;;;9.52;3.30;;;;;;;17.79;61.63;99951.56;5030317;27;98516;-64
2022/09/15 03:48:26;;;;;;;8.05;2.85;;;;;;;17.83;61.54;99946.84;5034336;27;98582;-66
2022/09/15 03:50:52;;;;;;;10.75;3.33;;;;;;;17.76;61.50;99940.25;5031915;27;97222;-65
2022/09/15 03:53:21;;;;;;;12.23;3.20;;;;;;;18.03;60.79;99937.25;5033223;28;98903;-65
2022/09/15 03:55:48;;;;;;;7.03;2.67;;;;;;;17.77;61.38;99942.81;5032269;27;98968;-65
2022/09/15 03:58:15;;;;;;;8.02;3.05;;;;;;;17.69;61.67;99939.88;5032538;27;96949;-66
2022/09/15 04:00:44;;;;;;;11.40;3.47;;;;;;;17.75;61.48;99944.75;5032690;27;97144;-66
2022/09/15 04:03:11;;;;;;;10.38;3.55;;;;;;;17.88;61.29;99934.81;5028363;28;98060;-66
2022/09/15 04:05:40;;;;;;;10.93;3.03;;;;;;;17.79;61.28;99940.88;5031367;28;101237;-65
2022/09/15 04:08:11;;;;;;;10.07;3.63;;;;;;;17.56;62.11;99939.09;5034337;27;97247;-64
2022/09/15 04:10:39;;;;;;;15.80;3.72;;;;;;;17.54;61.93;99941.03;5033926;28;97246;-65
2022/09/15 04:13:06;;;;;;;11.85;3.15;;;;;;;17.62;62.02;99930.66;5032455;27;100252;-66
2022/09/15 04:15:32;;;;;;;9.75;3.22;;;;;;;17.48;62.13;99934.34;5031155;28;99222;-64
2022/09/15 04:17:58;;;;;;;7.03;3.05;;;;;;;17.61;61.85;99931.59;5030515;28;99073;-66
2022/09/15 04:20:25;;;;;;;9.73;3.05;;;;;;;17.36;62.53;99937.09;5032507;27;98752;-65
2022/09/15 04:22:53;;;;;;;12.38;3.47;;;;;;;17.57;62.04;99940.81;5032507;27;98994;-65
2022/09/15 04:25:19;;;;;;;9.23;3.28;;;;;;;17.61;61.97;99936.94;5028844;28;99361;-65
2022/09/15 04:27:47;;;;;;;10.98;3.28;;;;;;;17.69;61.53;99947.91;5031823;28;98600;-65
2022/09/15 04:30:13;;;;;;;8.45;3.42;;;;;;;17.61;61.83;99942.28;5031413;28;97127;-65
2022/09/15 04:32:40;;;;;;;9.07;3.40;;;;;;;17.54;61.85;99941.03;5032056;28;98983;-65
2022/09/15 04:35:07;;;;;;;12.55;3.65;;;;;;;17.34;62.29;99939.88;5030986;27;99131;-69
2022/09/15 04:37:37;;;;;;;16.00;5.25;;;;;;;17.57;61.80;99945.31;5031191;27;97007;-66
2022/09/15 04:40:04;;;;;;;8.90;4.13;;;;;;;17.50;62.17;99936.91;5034708;28;97028;-66
2022/09/15 04:42:30;;;;;;;11.05;4.03;;;;;;;17.54;62.11;99935.69;5034768;27;98988;-65
2022/09/15 04:44:58;;;;;;;17.77;3.78;;;;;;;17.33;62.53;99931.97;5033411;28;98851;-64
2022/09/15 04:47:24;;;;;;;7.25;3.33;;;;;;;17.41;62.08;99932.25;5029177;28;97657;-67
2022/09/15 04:49:53;;;;;;;10.95;3.60;;;;;;;17.45;62.10;99933.75;5035109;27;96983;-65
2022/09/15 04:52:20;;;;;;;13.23;3.47;;;;;;;17.45;62.14;99925.72;5030307;27;101841;-66
2022/09/15 04:54:48;;;;;;;6.53;3.05;;;;;;;17.42;62.21;99925.94;5032672;27;98923;-66
2022/09/15 04:57:18;;;;;;;9.70;3.58;;;;;;;17.37;62.19;99933.47;5030205;28;96813;-66
2022/09/15 04:59:44;;;;;;;10.05;3.67;;;;;;;17.49;61.83;99937.88;5034412;27;97045;-66
2022/09/15 05:02:20;;;;;;;7.38;3.15;;;;;;;17.60;61.41;99935.22;5030993;27;101218;-66
2022/09/15 05:04:48;;;;;;;12.73;3.80;;;;;;;17.60;61.48;99937.03;5030530;28;99314;-67
2022/09/15 05:07:14;;;;;;;11.65;3.90;;;;;;;17.77;60.88;99929.47;5029858;27;96826;-68
2022/09/15 05:09:40;;;;;;;12.88;3.70;;;;;;;17.54;61.67;99931.19;5032588;27;96662;-67
2022/09/15 05:12:07;;;;;;;9.25;3.30;;;;;;;17.81;60.96;99936.25;5030378;28;98062;-67
2022/09/15 05:14:36;;;;;;;8.65;4.07;;;;;;;17.56;61.37;99939.09;5031722;27;98713;-66
2022/09/15 05:17:04;;;;;;;10.45;3.83;;;;;;;17.81;60.77;99938.06;5031423;28;96785;-66
2022/09/15 05:19:34;;;;;;;7.25;3.05;;;;;;;17.78;60.65;99941.00;5032577;27;97128;-67
2022/09/15 05:22:01;;;;;;;17.13;3.85;;;;;;;17.96;60.26;99941.38;5030013;27;98870;-66
2022/09/15 05:24:27;;;;;;;14.38;3.58;;;;;;;17.99;59.90;99930.44;5031257;27;98948;-66
2022/09/15 05:26:53;;;;;;;13.23;3.97;;;;;;;17.99;60.26;99930.44;5030491;28;100251;-66
2022/09/15 05:29:22;;;;;;;11.68;3.97;;;;;;;17.96;60.02;99933.38;5033377;28;98624;-67
2022/09/15 05:31:48;;;;;;;10.77;3.50;;;;;;;18.06;59.82;99934.31;5029887;28;98899;-67
2022/09/15 05:34:17;;;;;;;10.05;3.25;;;;;;;17.78;60.28;99933.00;5028112;28;99155;-68
2022/09/15 05:36:44;;;;;;;8.13;2.92;;;;;;;17.87;60.08;99933.09;5029480;27;97443;-66
2022/09/15 05:39:11;;;;;;;7.60;2.97;;;;;;;18.05;59.91;99935.31;5025174;28;97748;-67
2022/09/15 05:41:37;;;;;;;8.77;2.92;;;;;;;18.29;59.30;99938.72;5029376;27;99223;-67
2022/09/15 05:44:04;;;;;;;11.38;4.03;;;;;;;18.19;59.22;99937.72;5031847;28;99090;-67
2022/09/15 05:46:31;;;;;;;9.75;3.13;;;;;;;18.13;59.48;99939.06;5027973;28;98594;-66
2022/09/15 05:49:00;;;;;;;8.70;3.45;;;;;;;18.27;59.10;99940.66;5033018;27;97099;-67
2022/09/15 05:51:26;;;;;;;11.18;4.03;;;;;;;18.14;59.17;99951.47;5029325;27;99118;-67
2022/09/15 05:53:57;;;;;;;20.52;3.95;;;;;;;18.28;58.85;99951.22;5031307;28;99142;-67
2022/09/15 05:56:23;;;;;;;14.45;3.50;;;;;;;18.57;58.37;99948.94;5027192;28;96801;-68
2022/09/15 05:58:51;;;;;;;9.55;2.95;;;;;;;18.55;57.47;99949.97;5031047;28;96815;-67
2022/09/15 06:01:20;;;;;;;13.45;3.45;;;;;;;18.29;58.64;99944.06;5022600;27;99287;-67
2022/09/15 06:03:48;;;;;;;11.25;3.53;;;;;;;18.29;58.44;99946.72;5025637;27;100453;-67
2022/09/15 06:06:20;;;;;;;8.95;2.85;;;;;;;18.56;57.54;99943.69;5028624;27;96845;-68
2022/09/15 06:08:49;;;;;;;11.80;3.28;;;;;;;18.78;56.99;99950.81;5028409;27;99158;-68
2022/09/15 06:11:20;;;;;;;15.43;3.50;;;;;;;18.51;57.44;99949.38;5029626;27;98964;-67
2022/09/15 06:13:48;;;;;;;7.60;2.85;;;;;;;18.49;57.44;99955.81;5026108;27;99273;-67
2022/09/15 06:16:17;;;;;;;10.52;2.58;;;;;;;18.68;57.21;99946.22;5027585;27;97730;-67
2022/09/15 06:18:43;;;;;;;10.55;2.85;;;;;;;18.26;57.96;99949.63;5022034;27;97197;-67
2022/09/15 06:21:12;;;;;;;9.45;2.80;;;;;;;18.65;57.02;99951.81;5025767;27;98012;-67
2022/09/15 06:23:39;;;;;;;11.85;3.20;;;;;;;18.42;57.38;99951.94;5032591;27;98926;-66
2022/09/15 06:26:08;;;;;;;8.48;3.00;;;;;;;18.49;57.59;99955.81;5031362;27;97119;-68
2022/09/15 06:28:36;;;;;;;10.38;2.58;;;;;;;18.74;56.54;99954.72;5025290;27;96904;-67
2022/09/15 06:31:02;;;;;;;7.88;2.50;;;;;;;18.80;56.49;99957.75;5031157;27;101865;-68
2022/09/15 06:33:29;;;;;;;7.97;2.63;;;;;;;19.21;55.63;99948.97;5024691;27;100044;-67
2022/09/15 06:36:00;;;;;;;10.23;2.47;;;;;;;19.08;55.22;99953.66;5029956;27;96816;-68
2022/09/15 06:38:27;;;;;;;15.65;2.80;;;;;;;18.77;56.27;99954.47;5030749;27;98697;-67
2022/09/15 06:40:57;;;;;;;13.20;3.10;;;;;;;18.68;56.42;99956.06;5028219;27;98107;-68
2022/09/15 06:43:24;;;;;;;11.27;2.80;;;;;;;18.67;57.08;99949.88;5029912;27;98259;-67
2022/09/15 06:45:53;;;;;;;6.55;2.35;;;;;;;19.15;55.42;99954.00;5028571;27;97787;-67
2022/09/15 06:48:19;;;;;;;8.65;2.45;;;;;;;19.02;55.57;99955.00;5029233;27;97016;-67
2022/09/15 06:50:54;;;;;;;8.07;2.38;;;;;;;19.28;54.66;99950.16;5029791;27;100950;-67
2022/09/15 06:53:20;;;;;;;5.82;2.38;;;;;;;19.39;54.62;99958.13;5028197;28;98849;-68
2022/09/15 06:55:47;;;;;;;10.05;2.95;;;;;;;19.46;54.04;99953.13;5030334;27;97253;-67
2022/09/15 06:58:15;;;;;;;12.15;2.83;;;;;;;18.88;55.74;99965.16;5026362;27;97347;-68
2022/09/15 07:00:43;;;;;;;9.98;2.78;;;;;;;19.28;55.00;99963.56;5023996;27;98112;-68
2022/09/15 07:03:11;;;;;;;8.35;2.40;;;;;;;19.30;54.95;99966.94;5027910;27;98793;-68
2022/09/15 07:05:46;;;;;;;5.90;2.25;;;;;;;19.37;54.83;99970.78;5026683;27;97152;-68
2022/09/15 07:08:13;;;;;;;8.35;3.03;;;;;;;18.57;56.56;99964.97;5024736;27;97303;-68
2022/09/15 07:10:43;;;;;;;4.53;2.30;;;;;;;18.53;57.36;99966.16;5023342;27;99649;-67
2022/09/15 07:13:13;;;;;;;9.40;2.50;;;;;;;18.64;57.16;99976.84;5026650;27;98991;-67
2022/09/15 07:15:40;;;;;;;6.53;2.45;;;;;;;19.05;55.67;99980.66;5016878;27;97127;-67
2022/09/15 07:18:08;;;;;;;7.22;2.25;;;;;;;19.46;54.95;99983.47;5028088;27;97227;-67
2022/09/15 07:20:39;;;;;;;6.03;2.45;;;;;;;19.34;54.67;99992.50;5024489;27;99223;-67
2022/09/15 07:23:07;;;;;;;7.38;2.35;;;;;;;19.35;54.80;99983.50;5026292;28;100306;-67
2022/09/15 07:25:35;;;;;;;13.77;2.92;;;;;;;18.79;56.41;99979.28;5019940;27;96831;-67
2022/09/15 07:28:03;;;;;;;8.13;2.50;;;;;;;19.37;55.11;99988.69;5026869;27;96878;-67
2022/09/15 07:30:30;;;;;;;8.85;3.08;;;;;;;19.52;54.45;99989.28;5025732;27;98885;-67
2022/09/15 07:33:05;;;;;;;7.35;2.47;;;;;;;19.46;54.19;99983.47;5027133;28;98922;-67
2022/09/15 07:35:46;;;;;;;6.53;2.47;;;;;;;19.20;55.17;99994.63;5025900;27;97372;-67
2022/09/15 07:38:15;;;;;;;10.25;2.63;;;;;;;19.19;55.10;99991.09;5027890;28;97824;-68
2022/09/15 07:40:44;;;;;;;6.55;2.60;;;;;;;19.13;55.51;99994.28;5023558;27;98956;-68
2022/09/15 07:43:11;;;;;;;10.10;2.92;;;;;;;18.72;57.00;100005.69;5028021;27;98884;-68
2022/09/15 07:45:37;;;;;;;10.77;2.90;;;;;;;18.97;55.78;100005.38;5026821;27;97042;-68
2022/09/15 07:48:05;;;;;;;7.57;2.28;;;;;;;19.34;55.46;99999.69;5024806;27;97308;-68
2022/09/15 07:50:33;;;;;;;7.13;2.15;;;;;;;19.60;53.88;100008.25;5025359;27;101011;-68
2022/09/15 07:53:05;;;;;;;13.18;2.42;;;;;;;19.53;53.91;100012.41;5024496;27;99439;-68
2022/09/15 07:55:32;;;;;;;10.27;2.53;;;;;;;19.69;53.93;100010.16;5027087;27;96959;-68
2022/09/15 07:58:00;;;;;;;5.65;2.10;;;;;;;20.06;52.71;100010.53;5021572;27;97046;-68
2022/09/15 08:00:28;;;;;;;6.72;2.38;;;;;;;19.90;52.89;100016.34;5022873;27;98940;-68
2022/09/15 08:02:55;;;;;;;6.72;2.50;;;;;;;19.87;53.01;100009.44;5013634;27;99240;-68
2022/09/15 08:05:25;;;;;;;9.05;2.75;;;;;;;20.45;51.97;100012.47;5028214;27;96934;-68
2022/09/15 08:07:55;;;;;;;8.27;2.38;;;;;;;20.28;52.03;100024.63;5025288;27;98519;-68
2022/09/15 08:10:23;;;;;;;5.95;2.30;;;;;;;20.61;50.99;100022.69;5022078;27;99243;-67
2022/09/15 08:12:56;;;;;;;8.50;3.75;;;;;;;20.09;51.99;100016.47;5018825;27;99208;-69
2022/09/15 08:15:23;;;;;;;8.63;2.05;;;;;;;20.58;51.09;100017.59;5021431;27;97534;-69
2022/09/15 08:17:52;;;;;;;5.65;2.05;;;;;;;20.78;50.79;100008.63;5027732;27;98156;-67
2022/09/15 08:20:20;;;;;;;12.98;2.85;;;;;;;20.92;49.43;100015.44;5020595;27;98925;-67
2022/09/15 08:22:46;;;;;;;9.55;2.10;;;;;;;20.66;50.54;100007.88;5027080;28;98893;-67
2022/09/15 08:25:13;;;;;;;10.43;2.42;;;;;;;20.80;50.30;100003.97;5027781;27;97110;-66
2022/09/15 08:27:41;;;;;;;10.63;2.80;;;;;;;20.94;49.69;100006.22;5031671;27;97208;-65
2022/09/15 08:30:08;;;;;;;7.20;1.75;;;;;;;21.02;49.74;100010.91;5026586;28;99110;-66
2022/09/15 08:32:35;;;;;;;6.40;1.95;;;;;;;20.89;49.88;100015.69;5023647;27;99299;-66
2022/09/15 08:35:03;;;;;;;7.00;1.73;;;;;;;20.68;50.28;100013.09;5027101;28;96835;-66
2022/09/15 08:37:30;;;;;;;7.10;2.45;;;;;;;20.78;49.99;100013.13;5027043;27;97366;-66
2022/09/15 08:39:59;;;;;;;8.35;2.17;;;;;;;21.14;49.33;100014.31;5030937;27;98923;-66
2022/09/15 08:42:28;;;;;;;9.60;1.83;;;;;;;21.47;48.32;100012.13;5031071;27;98044;-66
2022/09/15 08:45:02;;;;;;;5.22;1.48;;;;;;;21.28;48.46;100013.97;5029950;27;98178;-67
2022/09/15 08:47:35;;;;;;;6.10;1.63;;;;;;;21.35;48.01;100020.47;5030279;27;98459;-66
2022/09/15 08:50:09;;;;;;;5.13;1.55;;;;;;;21.15;48.42;100018.72;5029611;28;97500;-66
2022/09/15 08:52:41;;;;;;;10.80;1.80;;;;;;;20.39;50.58;100020.19;5028557;28;98895;-66
2022/09/15 08:55:18;;;;;;;8.40;1.67;;;;;;;20.06;51.60;100016.75;5029987;28;97145;-65
2022/09/15 08:57:44;;;;;;;12.30;2.38;;;;;;;20.67;50.18;100012.28;5022410;27;98499;-65
2022/09/15 09:00:16;;;;;;;7.72;1.73;;;;;;;20.58;50.43;100002.34;5028649;28;99417;-67
2022/09/15 09:03:18;;;;;;;6.55;1.77;;;;;;;20.80;49.76;100003.13;5029017;27;98886;-67
2022/09/15 09:05:57;;;;;;;13.05;2.03;;;;;;;20.61;50.02;100017.34;5027477;28;97523;-66
2022/09/15 09:08:54;;;;;;;4.82;1.70;;;;;;;21.13;48.74;100015.34;5031464;28;96945;-67
2022/09/15 09:11:33;;;;;;;6.57;1.75;;;;;;;21.16;48.73;100010.56;5000478;27;100950;-67
2022/09/15 09:14:09;;;;;;;5.22;1.77;;;;;;;20.83;48.40;100014.41;5028700;28;98237;-69
2022/09/15 09:16:52;;;;;;;6.47;1.50;;;;;;;20.71;49.43;100018.19;5029758;27;97227;-68
2022/09/15 09:19:41;;;;;;;3.65;1.35;;;;;;;21.05;48.78;100016.88;5028480;28;96797;-68
2022/09/15 09:22:12;;;;;;;8.77;1.40;;;;;;;21.03;48.65;100020.69;5029973;28;99195;-68
2022/09/15 09:24:43;;;;;;;10.68;1.90;;;;;;;21.42;48.12;100016.22;5028213;27;98995;-68
2022/09/15 09:27:12;;;;;;;8.63;1.25;;;;;;;20.86;49.01;100018.69;5025605;27;98427;-68
2022/09/15 09:29:43;;;;;;;7.68;1.77;;;;;;;20.80;48.50;100021.91;5025383;27;97887;-68
2022/09/15 09:32:18;;;;;;;6.85;1.45;;;;;;;20.96;48.52;100006.97;5023094;27;99470;-67
2022/09/15 09:34:53;;;;;;;6.75;1.20;;;;;;;21.13;48.20;100005.44;5026449;27;99366;-67
2022/09/15 09:37:19;;;;;;;7.63;1.42;;;;;;;21.38;47.54;100007.63;5024079;28;98234;-67
2022/09/15 09:39:48;;;;;;;6.10;1.10;;;;;;;21.32;47.78;100012.72;5027502;27;97729;-67
2022/09/15 09:42:22;;;;;;;7.40;1.60;;;;;;;20.76;48.46;100007.91;5025016;28;98972;-67
2022/09/15 09:44:50;;;;;;;5.47;1.30;;;;;;;21.14;48.51;100003.56;5023991;27;98115;-68
2022/09/15 09:47:18;;;;;;;8.27;1.90;;;;;;;21.58;47.43;100004.94;5028308;27;97352;-68
2022/09/15 09:49:48;;;;;;;6.22;1.20;;;;;;;21.56;46.68;100007.75;5029180;28;97491;-68
2022/09/15 09:52:32;;;;;;;9.05;1.50;;;;;;;21.54;45.66;100003.50;5028693;28;99127;-68
2022/09/15 09:55:02;;;;;;;8.82;1.20;;;;;;;20.95;46.93;100005.25;5028062;28;99168;-68
2022/09/15 09:57:30;;;;;;;5.00;0.95;;;;;;;21.19;46.89;100007.59;5027308;27;96857;-68
2022/09/15 09:59:58;;;;;;;4.20;1.27;;;;;;;21.30;46.64;100009.31;5031255;28;96879;-68
2022/09/15 10:02:32;;;;;;;6.10;1.30;;;;;;;21.75;44.94;100010.41;5030073;27;98657;-68
2022/09/15 10:05:20;;;;;;;3.45;0.80;;;;;;;22.24;42.79;100003.13;5029210;27;99220;-67
2022/09/15 10:07:48;;;;;;;4.63;1.02;;;;;;;21.89;43.72;100006.44;5028638;28;97392;-67
2022/09/15 10:10:23;;;;;;;10.70;2.00;;;;;;;22.32;42.34;100000.53;5026729;27;97349;-67
2022/09/15 10:12:51;;;;;;;7.57;1.98;;;;;;;22.58;41.88;100020.41;5028786;28;99800;-67
2022/09/15 10:15:27;;;;;;;5.28;1.67;;;;;;;22.19;41.86;100006.25;5025028;28;99101;-68
2022/09/15 10:17:56;;;;;;;5.32;2.08;;;;;;;22.63;41.38;100010.06;5027004;28;97152;-68
2022/09/15 10:20:32;;;;;;;10.02;1.20;;;;;;;22.45;41.80;100011.00;5028825;28;97356;-68
2022/09/15 10:23:06;;;;;;;3.67;1.23;;;;;;;22.79;40.51;100017.50;5025808;28;97004;-67
2022/09/15 10:25:35;;;;;;;6.82;1.10;;;;;;;22.28;41.20;100017.97;5025499;28;98128;-68
2022/09/15 10:28:11;;;;;;;10.23;1.88;;;;;;;21.98;40.84;100005.63;5022314;27;97219;-67
2022/09/15 10:30:39;;;;;;;5.78;1.65;;;;;;;21.92;41.19;100010.69;5022865;27;97402;-67
2022/09/15 10:33:23;;;;;;;9.02;1.60;;;;;;;21.95;41.40;100007.69;5023214;27;99027;-67
2022/09/15 10:35:51;;;;;;;5.07;1.15;;;;;;;22.26;41.26;100009.19;5022098;27;100997;-67
2022/09/15 10:38:29;;;;;;;8.13;0.88;;;;;;;22.99;39.67;99997.53;5024388;27;97217;-68
2022/09/15 10:41:04;;;;;;;5.45;1.40;;;;;;;23.42;38.60;100004.06;5027124;27;97647;-68
2022/09/15 10:43:47;;;;;;;8.60;1.17;;;;;;;23.66;37.27;100007.00;5026393;27;102177;-67
2022/09/15 10:46:27;;;;;;;7.68;1.25;;;;;;;23.58;37.25;100001.53;5025077;27;99245;-68
2022/09/15 10:49:12;;;;;;;5.40;0.80;;;;;;;23.43;36.93;100009.28;5024714;27;98738;-69
2022/09/15 10:52:00;;;;;;;3.03;0.80;;;;;;;22.35;37.02;100002.09;5027145;27;97484;-67
2022/09/15 10:55:00;;;;;;;8.85;0.80;;;;;;;22.56;37.17;99998.19;5025707;27;99244;-68
2022/09/15 10:57:43;;;;;;;4.18;0.65;;;;;;;22.51;37.96;99997.75;5010150;27;98235;-68
2022/09/15 11:00:19;;;;;;;2.75;0.82;;;;;;;22.42;38.31;100001.38;5026537;28;97181;-68
2022/09/15 11:02:58;;;;;;;;;;;;;;;22.65;38.13;100004.50;5025287;27;97188;-67
2022/09/15 11:05:43;;;;;;;2.85;0.95;;;;;;;22.73;37.89;100001.09;5026700;28;101153;-68
2022/09/15 11:08:39;;;;;;;11.90;1.17;;;;;;;22.38;38.99;99991.91;5023528;27;99138;-68
2022/09/15 11:11:13;;;;;;;4.40;1.15;;;;;;;22.35;39.24;100004.78;5030384;28;96855;-68
2022/09/15 11:13:51;;;;;;;6.55;1.15;;;;;;;22.43;38.62;99999.53;5024511;28;96989;-68
2022/09/15 11:16:31;;;;;;;2.58;0.80;;;;;;;22.05;39.30;100003.19;5021885;27;100252;-68
2022/09/15 11:19:20;;;;;;;2.40;1.00;;;;;;;22.11;39.16;100006.16;5021140;27;99468;-67
2022/09/15 11:21:56;;;;;;;5.80;1.30;;;;;;;22.10;39.28;99999.06;5025120;27;96838;-68
2022/09/15 11:24:31;;;;;;;4.90;1.20;;;;;;;22.00;39.78;99997.38;5025790;28;96821;-68
2022/09/15 11:27:03;;;;;;;8.82;1.13;;;;;;;22.45;39.04;99994.84;5027137;27;97645;-67
2022/09/15 11:29:34;;;;;;;5.32;1.38;;;;;;;22.58;38.92;99998.88;5026643;28;98821;-69
2022/09/15 11:32:06;;;;;;;8.60;1.45;;;;;;;22.95;38.71;99985.38;5028246;28;97141;-68
2022/09/15 11:34:41;;;;;;;3.50;1.23;;;;;;;23.21;37.54;99990.03;5028570;28;97733;-68
2022/09/15 11:37:15;;;;;;;3.45;0.77;;;;;;;22.88;37.77;99987.00;5025475;28;99394;-68
2022/09/15 11:39:46;;;;;;;4.40;0.90;;;;;;;22.85;38.19;99994.50;5025409;28;99756;-68
2022/09/15 11:42:18;;;;;;;2.28;0.57;;;;;;;22.44;38.61;99994.00;5027164;28;96797;-67
2022/09/15 11:44:47;;;;;;;4.82;0.75;;;;;;;21.73;39.43;99998.09;5022909;27;97747;-67
2022/09/15 11:47:23;;;;;;;5.00;1.05;;;;;;;21.64;40.09;100005.19;5023271;27;99001;-67